createdAt,value
2022-08-17T00:02:22.409Z,8.10
2022-08-17T00:05:30.180Z,8.40
2022-08-17T00:08:38.004Z,7.40
2022-08-17T00:11:43.206Z,7.25
2022-08-17T00:15:06.286Z,6.88
2022-08-17T00:19:01.979Z,7.10
2022-08-17T00:24:55.996Z,7.85
2022-08-17T00:27:57.419Z,7.47
2022-08-17T00:30:59.732Z,7.82
2022-08-17T00:34:01.999Z,8.80
2022-08-17T00:37:03.517Z,7.95
2022-08-17T00:40:06.183Z,8.45
2022-08-17T00:43:14.921Z,7.95
2022-08-17T00:46:24.342Z,7.95
2022-08-17T00:49:26.335Z,8.23
2022-08-17T00:52:32.299Z,7.95
2022-08-17T00:55:34.508Z,8.02
2022-08-17T00:58:37.364Z,7.90
2022-08-17T01:01:39.784Z,8.30
2022-08-17T01:04:45.083Z,8.52
2022-08-17T01:07:50.709Z,8.10
2022-08-17T01:10:59.416Z,8.73
2022-08-17T01:14:04.096Z,8.10
2022-08-17T01:17:06.761Z,8.15
2022-08-17T01:20:09.122Z,7.95
2022-08-17T01:23:10.980Z,8.35
2022-08-17T01:26:18.235Z,7.82
2022-08-17T01:32:21.821Z,8.25
2022-08-17T01:35:23.402Z,7.82
2022-08-17T01:38:27.392Z,7.65
2022-08-17T01:41:29.241Z,7.80
2022-08-17T01:44:30.742Z,7.70
2022-08-17T01:47:32.452Z,7.60
2022-08-17T01:50:40.904Z,7.55
2022-08-17T01:53:47.376Z,7.53
2022-08-17T01:56:51.459Z,7.35
2022-08-17T01:59:52.915Z,8.07
2022-08-17T02:02:54.434Z,8.90
2022-08-17T02:05:56.261Z,8.98
2022-08-17T02:12:37.820Z,9.13
2022-08-17T02:15:29.108Z,8.55
2022-08-17T02:18:30.713Z,9.07
2022-08-17T02:21:32.480Z,9.10
2022-08-17T02:24:59.779Z,9.90
2022-08-17T02:27:59.897Z,10.30
2022-08-17T02:31:07.606Z,9.57
2022-08-17T02:34:09.486Z,9.00
2022-08-17T02:37:11.212Z,9.52
2022-08-17T02:43:14.459Z,8.93
2022-08-17T02:46:15.908Z,9.35
2022-08-17T02:49:17.354Z,9.13
2022-08-17T02:52:19.005Z,8.82
2022-08-17T02:55:41.797Z,9.02
2022-08-17T02:58:43.259Z,9.23
2022-08-17T03:01:44.933Z,8.93
2022-08-17T03:04:46.450Z,8.13
2022-08-17T03:07:48.753Z,8.70
2022-08-17T03:10:50.685Z,8.65
2022-08-17T03:13:52.155Z,8.65
2022-08-17T03:16:53.704Z,8.73
2022-08-17T03:19:55.776Z,9.32
2022-08-17T03:23:02.975Z,8.88
2022-08-17T03:26:04.798Z,9.13
2022-08-17T03:29:18.817Z,8.50
2022-08-17T03:32:20.638Z,8.70
2022-08-17T03:35:25.458Z,8.52
2022-08-17T03:38:26.975Z,8.48
2022-08-17T03:41:28.612Z,8.52
2022-08-17T03:44:30.056Z,8.63
2022-08-17T03:47:50.197Z,8.68
2022-08-17T03:51:14.659Z,8.70
2022-08-17T03:54:35.059Z,8.77
2022-08-17T03:57:36.780Z,8.07
2022-08-17T04:00:39.770Z,8.90
2022-08-17T04:03:41.780Z,8.18
2022-08-17T04:09:44.897Z,8.10
2022-08-17T04:12:54.469Z,8.40
2022-08-17T04:15:57.224Z,8.02
2022-08-17T04:18:58.994Z,8.40
2022-08-17T04:25:09.001Z,8.33
2022-08-17T04:28:15.846Z,7.80
2022-08-17T04:31:17.880Z,8.48
2022-08-17T04:34:20.258Z,8.20
2022-08-17T04:37:22.027Z,7.97
2022-08-17T04:40:44.872Z,8.15
2022-08-17T04:43:48.824Z,8.40
2022-08-17T04:46:50.333Z,8.60
2022-08-17T04:49:53.465Z,8.75
2022-08-17T04:52:55.293Z,9.30
2022-08-17T04:55:58.928Z,9.25
2022-08-17T04:59:04.268Z,8.90
2022-08-17T05:02:05.722Z,9.65
2022-08-17T05:05:07.489Z,9.50
2022-08-17T05:11:10.754Z,9.18
2022-08-17T05:14:12.801Z,9.52
2022-08-17T05:17:14.519Z,10.00
2022-08-17T05:20:16.428Z,9.63
2022-08-17T05:26:25.989Z,9.93
2022-08-17T05:29:35.617Z,9.68
2022-08-17T05:32:40.298Z,9.30
2022-08-17T05:35:46.949Z,8.20
2022-08-17T05:38:48.551Z,8.60
2022-08-17T05:41:50.033Z,9.18
2022-08-17T05:44:51.476Z,8.52
2022-08-17T05:47:53.002Z,7.45
2022-08-17T05:51:19.654Z,7.07
2022-08-17T05:54:48.273Z,7.00
2022-08-17T05:58:11.276Z,6.28
2022-08-17T06:01:47.664Z,6.20
2022-08-17T06:05:11.100Z,6.55
2022-08-17T06:08:53.415Z,6.90
2022-08-17T06:15:46.034Z,7.90
2022-08-17T06:19:00.598Z,7.55
2022-08-17T06:22:03.477Z,7.60
2022-08-17T06:25:12.783Z,7.57
2022-08-17T06:28:21.007Z,7.63
2022-08-17T06:31:29.015Z,7.80
2022-08-17T06:34:32.028Z,7.45
2022-08-17T06:38:05.445Z,6.80
2022-08-17T06:42:03.271Z,7.00
2022-08-17T06:45:15.378Z,7.40
2022-08-17T06:48:32.402Z,7.00
2022-08-17T06:51:43.356Z,7.13
2022-08-17T06:54:57.161Z,6.75
2022-08-17T06:58:05.849Z,6.68
2022-08-17T07:01:24.853Z,6.40
2022-08-17T07:04:31.161Z,6.10
2022-08-17T07:07:56.637Z,5.85
2022-08-17T07:11:04.885Z,5.00
2022-08-17T07:14:23.850Z,4.70
2022-08-17T07:17:46.779Z,4.20
2022-08-17T07:20:51.197Z,4.57
2022-08-17T07:24:06.677Z,5.00
2022-08-17T07:27:22.874Z,5.18
2022-08-17T07:30:44.675Z,5.32
2022-08-17T07:34:06.656Z,5.80
2022-08-17T07:37:08.150Z,6.22
2022-08-17T07:40:20.482Z,8.80
2022-08-17T07:43:32.037Z,8.23
2022-08-17T07:46:54.616Z,7.07
2022-08-17T07:49:56.124Z,5.90
2022-08-17T07:52:59.145Z,5.85
2022-08-17T07:56:00.607Z,5.57
2022-08-17T07:59:23.031Z,5.63
2022-08-17T08:02:33.898Z,5.70
2022-08-17T08:05:50.376Z,6.00
2022-08-17T08:08:55.957Z,6.57
2022-08-17T08:11:57.435Z,6.30
2022-08-17T08:15:18.663Z,6.97
2022-08-17T08:18:54.862Z,6.73
2022-08-17T08:22:18.096Z,6.78
2022-08-17T08:25:25.454Z,7.35
2022-08-17T08:28:30.284Z,7.50
2022-08-17T08:32:00.967Z,7.22
2022-08-17T08:35:10.704Z,8.23
2022-08-17T08:38:26.789Z,7.55
2022-08-17T08:41:52.210Z,8.00
2022-08-17T08:45:14.801Z,7.72
2022-08-17T08:48:56.189Z,7.65
2022-08-17T08:52:02.717Z,7.60
2022-08-17T08:55:26.412Z,8.00
2022-08-17T08:58:50.544Z,8.05
2022-08-17T09:02:00.142Z,7.72
2022-08-17T09:05:31.949Z,8.70
2022-08-17T09:09:15.673Z,8.85
2022-08-17T09:12:41.633Z,8.90
2022-08-17T09:15:47.896Z,9.15
2022-08-17T09:19:03.005Z,8.60
2022-08-17T09:22:31.308Z,9.45
2022-08-17T09:25:39.475Z,9.40
2022-08-17T09:28:48.185Z,9.45
2022-08-17T09:31:56.225Z,8.82
2022-08-17T09:35:03.731Z,8.93
2022-08-17T09:38:25.582Z,8.63
2022-08-17T09:42:02.630Z,8.60
2022-08-17T09:45:28.093Z,8.02
2022-08-17T09:48:44.141Z,8.10
2022-08-17T09:51:51.988Z,8.75
2022-08-17T09:54:55.508Z,8.07
2022-08-17T09:58:09.915Z,8.63
2022-08-17T10:01:39.699Z,8.20
2022-08-17T10:05:01.774Z,7.90
2022-08-17T10:08:15.039Z,7.75
2022-08-17T10:12:17.145Z,7.65
2022-08-17T10:15:40.141Z,7.97
2022-08-17T10:19:15.810Z,8.65
2022-08-17T10:22:51.195Z,8.95
2022-08-17T10:26:14.793Z,8.35
2022-08-17T10:29:25.211Z,8.70
2022-08-17T10:32:38.415Z,7.88
2022-08-17T10:36:01.203Z,7.70
2022-08-17T10:39:36.765Z,7.65
2022-08-17T10:43:04.352Z,7.78
2022-08-17T10:49:47.430Z,7.38
2022-08-17T10:52:49.368Z,7.10
2022-08-17T10:56:12.875Z,7.57
2022-08-17T10:59:36.059Z,6.93
2022-08-17T11:02:49.707Z,6.60
2022-08-17T11:06:03.952Z,6.63
2022-08-17T11:09:31.602Z,6.90
2022-08-17T11:12:33.139Z,6.95
2022-08-17T11:16:02.373Z,7.57
2022-08-17T11:19:48.559Z,7.03
2022-08-17T11:23:10.161Z,6.60
2022-08-17T11:26:29.630Z,6.80
2022-08-17T11:29:51.960Z,6.78
2022-08-17T11:32:57.409Z,7.47
2022-08-17T11:36:26.972Z,7.43
2022-08-17T11:39:47.319Z,6.78
2022-08-17T11:43:07.915Z,7.15
2022-08-17T11:46:18.439Z,7.10
2022-08-17T11:50:18.154Z,6.50
2022-08-17T11:53:37.868Z,6.88
2022-08-17T11:56:47.196Z,7.13
2022-08-17T11:59:51.737Z,7.18
2022-08-17T12:03:26.359Z,6.47
2022-08-17T12:06:45.440Z,6.82
2022-08-17T12:09:50.850Z,6.43
2022-08-17T12:12:53.965Z,5.93
2022-08-17T12:15:56.596Z,5.88
2022-08-17T12:19:02.453Z,6.00
2022-08-17T12:22:07.958Z,5.80
2022-08-17T12:25:16.732Z,5.20
2022-08-17T12:28:24.757Z,5.55
2022-08-17T12:31:34.360Z,5.60
2022-08-17T12:34:36.010Z,5.80
2022-08-17T12:37:46.626Z,5.72
2022-08-17T12:40:58.028Z,5.38
2022-08-17T12:44:06.387Z,5.40
2022-08-17T12:47:22.342Z,5.20
2022-08-17T12:50:28.723Z,5.20
2022-08-17T12:53:35.193Z,5.05
2022-08-17T12:56:36.749Z,5.40
2022-08-17T12:59:43.117Z,5.60
2022-08-17T13:02:51.164Z,5.43
2022-08-17T13:05:52.550Z,5.85
2022-08-17T13:12:01.637Z,5.57
2022-08-17T13:15:03.991Z,5.68
2022-08-17T13:18:28.436Z,5.15
2022-08-17T13:21:30.752Z,6.13
2022-08-17T13:24:38.017Z,5.50
2022-08-17T13:27:42.545Z,5.65
2022-08-17T13:30:44.465Z,6.00
2022-08-17T13:33:46.034Z,5.45
2022-08-17T13:40:10.635Z,5.70
2022-08-17T13:43:12.320Z,5.70
2022-08-17T13:46:34.005Z,5.72
2022-08-17T13:52:52.256Z,5.60
2022-08-17T13:56:00.651Z,5.28
2022-08-17T13:59:08.552Z,5.28
2022-08-17T14:02:11.219Z,5.15
2022-08-17T14:05:12.783Z,5.45
2022-08-17T14:08:16.157Z,5.22
2022-08-17T14:11:18.481Z,5.72
2022-08-17T14:14:23.167Z,5.25
2022-08-17T14:17:26.681Z,5.20
2022-08-17T14:20:28.160Z,5.38
2022-08-17T14:26:33.352Z,5.70
2022-08-17T14:32:38.056Z,6.00
2022-08-17T14:35:39.511Z,5.68
2022-08-17T14:41:42.597Z,5.38
2022-08-17T14:44:44.111Z,6.03
2022-08-17T14:50:47.129Z,5.40
2022-08-17T14:56:59.201Z,5.78
2022-08-17T15:00:13.387Z,5.72
2022-08-17T15:03:16.176Z,5.50
2022-08-17T15:06:17.613Z,5.50
2022-08-17T15:12:27.487Z,5.55
2022-08-17T15:15:34.057Z,6.35
2022-08-17T15:18:36.539Z,5.20
2022-08-17T15:21:38.052Z,5.38
2022-08-17T15:27:41.444Z,5.82
2022-08-17T15:30:44.777Z,5.03
2022-08-17T15:33:46.286Z,5.38
2022-08-17T15:39:51.697Z,5.57
2022-08-17T15:42:53.385Z,4.82
2022-08-17T15:46:03.623Z,5.32
2022-08-17T15:49:05.156Z,5.50
2022-08-17T15:58:29.867Z,5.00
2022-08-17T16:02:24.151Z,5.22
2022-08-17T16:05:10.050Z,5.10
2022-08-17T16:08:13.919Z,5.10
2022-08-17T16:11:18.734Z,5.20
2022-08-17T16:17:38.633Z,4.75
2022-08-17T16:20:42.741Z,5.28
2022-08-17T16:23:44.282Z,5.10
2022-08-17T16:26:45.957Z,5.57
2022-08-17T16:32:55.143Z,5.53
2022-08-17T16:35:56.684Z,5.60
2022-08-17T16:42:01.311Z,6.10
2022-08-17T16:45:09.685Z,5.85
2022-08-17T16:48:11.923Z,5.47
2022-08-17T16:51:13.415Z,5.47
2022-08-17T16:54:17.679Z,5.35
2022-08-17T16:57:19.557Z,5.45
2022-08-17T17:00:21.195Z,6.30
2022-08-17T17:03:25.071Z,6.18
2022-08-17T17:07:00.998Z,6.15
2022-08-17T17:10:07.587Z,6.07
2022-08-17T17:13:37.174Z,6.50
2022-08-17T17:17:01.500Z,6.18
2022-08-17T17:20:02.885Z,6.10
2022-08-17T17:23:09.488Z,6.20
2022-08-17T17:26:50.634Z,6.22
2022-08-17T17:30:27.532Z,6.13
2022-08-17T17:33:40.394Z,5.90
2022-08-17T17:36:56.430Z,5.78
2022-08-17T17:40:03.562Z,5.80
2022-08-17T17:43:34.904Z,5.97
2022-08-17T17:46:33.752Z,6.20
2022-08-17T17:49:46.535Z,6.20
2022-08-17T17:52:55.815Z,5.88
2022-08-17T17:56:42.985Z,5.60
2022-08-17T17:59:59.478Z,6.03
2022-08-17T18:03:22.459Z,6.00
2022-08-17T18:06:36.242Z,5.85
2022-08-17T18:10:19.805Z,6.53
2022-08-17T18:13:53.544Z,6.32
2022-08-17T18:16:57.733Z,5.88
2022-08-17T18:19:59.741Z,5.80
2022-08-17T18:23:01.216Z,5.93
2022-08-17T18:26:02.932Z,6.40
2022-08-17T18:29:31.951Z,6.70
2022-08-17T18:32:39.900Z,6.45
2022-08-17T18:35:59.266Z,6.22
2022-08-17T18:39:27.987Z,6.43
2022-08-17T18:42:29.941Z,6.10
2022-08-17T18:45:44.584Z,6.85
2022-08-17T18:48:59.251Z,6.57
2022-08-17T18:52:36.416Z,6.85
2022-08-17T18:55:38.582Z,6.30
2022-08-17T18:58:40.132Z,6.68
2022-08-17T19:05:27.077Z,6.70
2022-08-17T19:08:28.493Z,6.32
2022-08-17T19:11:34.124Z,6.40
2022-08-17T19:14:35.818Z,6.15
2022-08-17T19:17:51.009Z,6.00
2022-08-17T19:21:14.444Z,6.20
2022-08-17T19:24:22.105Z,6.40
2022-08-17T19:27:34.830Z,6.15
2022-08-17T19:30:43.456Z,6.20
2022-08-17T19:36:52.584Z,6.63
2022-08-17T19:40:00.299Z,6.28
2022-08-17T19:43:18.276Z,6.40
2022-08-17T19:46:39.284Z,6.03
2022-08-17T19:49:49.883Z,5.93
2022-08-17T19:53:13.157Z,6.20
2022-08-17T19:56:22.207Z,6.38
2022-08-17T19:59:39.056Z,6.25
2022-08-17T20:03:07.112Z,6.05
2022-08-17T20:06:13.829Z,6.38
2022-08-17T20:09:37.746Z,6.50
2022-08-17T20:12:42.583Z,5.95
2022-08-17T20:15:45.962Z,6.07
2022-08-17T20:19:07.729Z,5.75
2022-08-17T20:22:22.767Z,5.63
2022-08-17T20:25:34.951Z,6.13
2022-08-17T20:28:39.112Z,5.90
2022-08-17T20:31:49.449Z,5.82
2022-08-17T20:35:04.154Z,5.93
2022-08-17T20:38:10.810Z,5.80
2022-08-17T20:41:31.876Z,5.50
2022-08-17T20:44:35.445Z,5.53
2022-08-17T20:48:15.316Z,5.28
2022-08-17T20:51:31.466Z,5.00
2022-08-17T20:54:45.008Z,5.60
2022-08-17T20:57:48.418Z,5.50
2022-08-17T21:00:56.236Z,5.38
2022-08-17T21:03:58.385Z,5.40
2022-08-17T21:07:43.444Z,5.88
2022-08-17T21:10:46.603Z,5.40
2022-08-17T21:14:07.264Z,5.60
2022-08-17T21:17:31.165Z,5.50
2022-08-17T21:20:58.776Z,5.88
2022-08-17T21:24:28.240Z,5.38
2022-08-17T21:27:49.944Z,5.60
2022-08-17T21:30:58.471Z,5.50
2022-08-17T21:34:15.246Z,5.70
2022-08-17T21:37:19.827Z,5.72
2022-08-17T21:40:27.785Z,5.78
2022-08-17T21:43:33.918Z,6.05
2022-08-17T21:46:39.769Z,6.15
2022-08-17T21:49:41.561Z,6.13
2022-08-17T21:55:48.659Z,6.35
2022-08-17T21:59:25.891Z,6.32
2022-08-17T22:02:33.634Z,6.60
2022-08-17T22:05:37.871Z,6.43
2022-08-17T22:08:39.351Z,6.43
2022-08-17T22:12:02.909Z,6.78
2022-08-17T22:15:07.443Z,6.50
2022-08-17T22:18:20.062Z,7.25
2022-08-17T22:21:22.626Z,6.68
2022-08-17T22:24:26.858Z,6.88
2022-08-17T22:27:55.741Z,6.88
2022-08-17T22:31:03.441Z,7.32
2022-08-17T22:34:15.041Z,6.78
2022-08-17T22:37:28.636Z,6.93
2022-08-17T22:40:34.376Z,6.43
2022-08-17T22:43:38.401Z,6.53
2022-08-17T22:47:24.134Z,6.32
2022-08-17T22:50:29.646Z,6.72
2022-08-17T22:53:49.883Z,6.82
2022-08-17T22:57:20.037Z,6.65
2022-08-17T23:00:48.681Z,6.35
2022-08-17T23:03:58.925Z,6.72
2022-08-17T23:07:00.367Z,7.10
2022-08-17T23:10:06.313Z,7.30
2022-08-17T23:13:11.812Z,6.93
2022-08-17T23:16:14.782Z,7.47
2022-08-17T23:19:21.050Z,7.13
2022-08-17T23:22:23.576Z,7.28
2022-08-17T23:25:29.013Z,7.68
2022-08-17T23:28:30.520Z,6.97
2022-08-17T23:31:34.501Z,6.80
2022-08-17T23:34:37.454Z,6.57
2022-08-17T23:37:41.370Z,6.90
2022-08-17T23:40:42.910Z,6.65
2022-08-17T23:43:46.930Z,7.15
2022-08-17T23:46:48.403Z,7.45
2022-08-17T23:49:49.878Z,6.80
2022-08-17T23:52:55.696Z,7.10
2022-08-17T23:56:03.954Z,6.90
2022-08-17T23:59:13.511Z,6.28
